Time;durP1;ratioP1;P1;durP2;ratioP2;P2;SDS_P1;SDS_P2;PMS_P1;PMS_P2;Temp;Humidity;BMP_temperature;BMP_pressure;BME280_temperature;BME280_humidity;BME280_pressure;Samples;Min_cycle;Max_cycle;Signal;HPM_P1;HPM_P2
2023/12/10 00:02:17;;;;;;;10.10;7.40;;;;;;;2.61;100.00;98995.95;178115;1256;46182;-83
2023/12/10 00:06:20;;;;;;;11.70;9.60;;;;;;;2.63;100.00;98983.16;178763;1257;59438;-85
2023/12/10 00:10:24;;;;;;;13.90;7.80;;;;;;;2.69;100.00;98977.89;178894;1253;44143;-83
2023/12/10 00:14:27;;;;;;;11.60;7.20;;;;;;;2.75;100.00;98967.13;178281;1253;46104;-84
2023/12/10 00:18:30;;;;;;;12.30;7.50;;;;;;;2.74;100.00;98967.38;178647;1254;45107;-85
2023/12/10 00:22:33;;;;;;;13.70;8.80;;;;;;;2.76;100.00;98974.27;178466;1253;44840;-83
2023/12/10 00:26:37;;;;;;;16.90;9.30;;;;;;;2.74;100.00;98973.37;179720;1254;57919;-84
2023/12/10 00:30:42;;;;;;;11.30;8.00;;;;;;;2.82;100.00;98981.93;179679;1253;46101;-84
2023/12/10 00:34:45;;;;;;;10.50;6.70;;;;;;;2.94;100.00;98989.47;179201;1253;46091;-84
2023/12/10 00:38:49;;;;;;;11.00;8.10;;;;;;;3.03;100.00;98997.23;179196;1253;46005;-84
2023/12/10 00:42:52;;;;;;;16.30;10.10;;;;;;;2.94;100.00;99003.23;179190;1253;47484;-84
2023/12/10 00:46:56;;;;;;;14.00;8.80;;;;;;;2.78;100.00;98999.66;180106;1257;59548;-82
2023/12/10 00:50:59;;;;;;;12.60;8.70;;;;;;;2.70;100.00;99008.08;181414;1254;45966;-81
2023/12/10 00:55:04;;;;;;;15.90;9.60;;;;;;;2.64;100.00;99005.39;179717;1256;45979;-83
2023/12/10 00:59:07;;;;;;;23.60;14.00;;;;;;;2.60;100.00;99003.52;178715;1257;46136;-83
2023/12/10 01:03:10;;;;;;;21.80;11.20;;;;;;;2.57;100.00;99000.05;179124;1254;45908;-85
2023/12/10 01:07:16;;;;;;;21.30;12.10;;;;;;;2.54;100.00;98996.94;179162;1253;59420;-84
2023/12/10 01:11:19;;;;;;;14.80;10.90;;;;;;;2.61;100.00;98993.68;179403;1253;46006;-83
2023/12/10 01:15:32;;;;;;;23.70;16.70;;;;;;;2.67;100.00;98986.77;179482;1256;45994;-84
2023/12/10 01:19:35;;;;;;;21.40;14.90;;;;;;;2.68;100.00;98981.83;179219;1254;46022;-84
2023/12/10 01:23:39;;;;;;;24.50;13.60;;;;;;;2.63;100.00;98990.56;178933;1256;46106;-85
2023/12/10 01:27:42;;;;;;;25.30;15.10;;;;;;;2.51;100.00;98989.61;178179;1256;60071;-83
2023/12/10 01:31:46;;;;;;;21.00;12.20;;;;;;;2.50;100.00;98973.08;178682;1253;46414;-84
2023/12/10 01:35:49;;;;;;;19.40;12.30;;;;;;;2.47;100.00;98970.50;179666;1252;46121;-83
2023/12/10 01:39:52;;;;;;;17.10;11.90;;;;;;;2.53;100.00;98981.77;178532;1253;47316;-83
2023/12/10 01:43:55;;;;;;;17.10;11.90;;;;;;;2.55;100.00;98988.79;180309;1253;44148;-83
2023/12/10 01:48:00;;;;;;;15.60;12.10;;;;;;;2.56;100.00;98977.19;178555;1256;58240;-83
2023/12/10 01:52:04;;;;;;;11.90;8.40;;;;;;;2.61;100.00;98969.85;178849;1257;46215;-83
2023/12/10 01:56:09;;;;;;;13.90;9.40;;;;;;;2.80;100.00;98962.61;178270;1253;46085;-83
2023/12/10 02:00:14;;;;;;;11.40;9.40;;;;;;;3.03;100.00;98965.04;178002;1257;46045;-81
2023/12/10 02:04:17;;;;;;;15.40;10.10;;;;;;;3.17;100.00;98954.76;178684;1254;45125;-83
2023/12/10 02:08:20;;;;;;;16.40;10.80;;;;;;;3.26;100.00;98946.70;178486;1252;57937;-83
2023/12/10 02:12:23;;;;;;;14.30;9.60;;;;;;;3.31;100.00;98942.02;178702;1254;45998;-82
2023/12/10 02:16:27;;;;;;;15.00;10.50;;;;;;;3.28;100.00;98944.29;178170;1254;45984;-83
2023/12/10 02:20:30;;;;;;;13.50;8.50;;;;;;;3.29;100.00;98939.83;177903;1257;45974;-84
2023/12/10 02:24:48;;;;;;;13.80;9.30;;;;;;;3.16;100.00;98940.39;178793;1256;46039;-82
2023/12/10 02:28:52;;;;;;;11.60;8.40;;;;;;;3.18;100.00;98936.79;178772;1256;58234;-84
2023/12/10 02:32:55;;;;;;;14.40;9.40;;;;;;;3.17;100.00;98941.77;178694;1255;46048;-82
2023/12/10 02:36:58;;;;;;;14.20;10.20;;;;;;;3.14;100.00;98941.60;179083;1253;44817;-84
2023/12/10 02:41:01;;;;;;;14.60;7.80;;;;;;;3.15;100.00;98942.60;178709;1253;46719;-84
2023/12/10 02:45:05;;;;;;;12.70;8.80;;;;;;;3.12;100.00;98946.50;179584;1254;44052;-81
2023/12/10 02:49:08;;;;;;;13.50;8.40;;;;;;;2.98;100.00;98937.31;179786;1255;60126;-83
2023/12/10 02:53:11;;;;;;;16.90;10.50;;;;;;;2.76;100.00;98929.76;179032;1257;46008;-83
2023/12/10 02:57:15;;;;;;;15.40;10.80;;;;;;;2.72;100.00;98930.39;178730;1254;45865;-81
2023/12/10 03:01:18;;;;;;;15.50;11.20;;;;;;;2.68;100.00;98937.17;179056;1256;45994;-84
2023/12/10 03:05:23;;;;;;;14.10;10.40;;;;;;;2.64;100.00;98934.13;179422;1257;46009;-83
2023/12/10 03:09:26;;;;;;;14.10;10.60;;;;;;;2.57;100.00;98935.67;178818;1256;59533;-83
2023/12/10 03:13:29;;;;;;;13.60;9.20;;;;;;;2.61;100.00;98941.70;179285;1254;45946;-83
2023/12/10 03:17:32;;;;;;;14.30;10.40;;;;;;;2.52;100.00;98944.39;179293;1253;45974;-85
2023/12/10 03:21:36;;;;;;;11.90;10.30;;;;;;;2.55;100.00;98938.42;178745;1257;46145;-84
2023/12/10 03:25:39;;;;;;;9.20;6.70;;;;;;;2.52;100.00;98936.22;178958;1254;44195;-85
2023/12/10 03:29:42;;;;;;;14.60;11.40;;;;;;;2.40;100.00;98938.54;179407;1254;58337;-84
2023/12/10 03:33:46;;;;;;;17.10;11.50;;;;;;;2.38;100.00;98940.64;179912;1254;44748;-85
2023/12/10 03:37:49;;;;;;;17.10;10.30;;;;;;;2.37;100.00;98948.75;179441;1254;46084;-84
2023/12/10 03:41:52;;;;;;;15.70;10.90;;;;;;;2.40;100.00;98946.45;179671;1256;46117;-85
2023/12/10 03:45:55;;;;;;;18.30;12.10;;;;;;;2.37;100.00;98950.84;179381;1255;46013;-85
2023/12/10 03:49:59;;;;;;;14.10;10.40;;;;;;;2.43;100.00;98952.72;179149;1254;57906;-84
2023/12/10 03:54:03;;;;;;;15.50;9.90;;;;;;;2.47;100.00;98952.11;179001;1254;44184;-84
2023/12/10 03:58:06;;;;;;;12.10;8.10;;;;;;;2.54;100.00;98950.36;179163;1254;44057;-85
2023/12/10 04:02:09;;;;;;;10.80;8.30;;;;;;;2.59;100.00;98956.36;178377;1253;46111;-83
2023/12/10 04:06:12;;;;;;;7.60;5.70;;;;;;;2.66;100.00;98964.96;178984;1254;46157;-85
2023/12/10 04:10:15;;;;;;;6.40;4.80;;;;;;;2.71;100.00;98965.65;179256;1254;57619;-85
2023/12/10 04:14:18;;;;;;;6.80;5.60;;;;;;;2.80;100.00;98965.56;178307;1255;45971;-81
2023/12/10 04:18:22;;;;;;;6.30;5.00;;;;;;;2.83;100.00;98966.80;179106;1254;46004;-85
2023/12/10 04:22:27;;;;;;;6.50;5.20;;;;;;;2.84;100.00;98966.16;180620;1254;46145;-81
2023/12/10 04:26:30;;;;;;;5.60;3.40;;;;;;;2.85;100.00;98969.42;181107;1254;46103;-86
2023/12/10 04:30:33;;;;;;;5.10;4.10;;;;;;;2.87;100.00;98968.80;179128;1254;58235;-85
2023/12/10 04:34:37;;;;;;;6.30;3.90;;;;;;;2.93;100.00;98971.34;178532;1257;46089;-86
2023/12/10 04:38:40;;;;;;;4.60;4.00;;;;;;;2.91;100.00;98967.63;178767;1253;46114;-85
2023/12/10 04:42:43;;;;;;;5.10;3.60;;;;;;;2.88;100.00;98971.67;178640;1257;44378;-85
2023/12/10 04:46:46;;;;;;;6.90;6.10;;;;;;;2.89;100.00;98976.00;178224;1253;46120;-83
2023/12/10 04:50:50;;;;;;;5.40;4.90;;;;;;;2.89;100.00;98979.82;178323;1255;59691;-84
2023/12/10 04:54:53;;;;;;;5.50;5.00;;;;;;;2.90;100.00;98984.31;178600;1256;46090;-85
2023/12/10 04:58:56;;;;;;;6.10;4.80;;;;;;;2.89;100.00;98987.67;178477;1254;46080;-84
2023/12/10 05:02:59;;;;;;;6.40;4.70;;;;;;;2.90;100.00;98996.92;178569;1254;44098;-86
2023/12/10 05:07:03;;;;;;;6.80;6.00;;;;;;;2.88;100.00;98994.80;178445;1257;45259;-83
2023/12/10 05:11:06;;;;;;;5.80;4.80;;;;;;;2.88;100.00;99008.77;178347;1255;58353;-86
2023/12/10 05:15:09;;;;;;;4.80;4.00;;;;;;;2.84;100.00;99015.17;178923;1254;44756;-85
2023/12/10 05:19:12;;;;;;;6.10;5.20;;;;;;;2.85;100.00;99018.63;178845;1253;46091;-84
2023/12/10 05:23:16;;;;;;;6.70;4.30;;;;;;;2.83;100.00;99022.79;178861;1254;46150;-84
2023/12/10 05:27:19;;;;;;;7.20;5.00;;;;;;;2.81;100.00;99031.17;178668;1254;45968;-83
2023/12/10 05:31:22;;;;;;;7.00;5.50;;;;;;;2.83;100.00;99030.48;178413;1257;59344;-85
2023/12/10 05:35:25;;;;;;;5.20;4.60;;;;;;;2.86;100.00;99028.71;178924;1253;46448;-85
2023/12/10 05:39:28;;;;;;;8.20;5.80;;;;;;;2.86;100.00;99035.36;178705;1254;45994;-84
2023/12/10 05:43:32;;;;;;;9.20;6.70;;;;;;;2.81;100.00;99044.27;179382;1254;45940;-84
2023/12/10 05:47:35;;;;;;;9.60;6.40;;;;;;;2.82;100.00;99050.73;179189;1254;46059;-84
2023/12/10 05:51:38;;;;;;;6.20;5.00;;;;;;;2.80;100.00;99048.89;178127;1254;58246;-86
2023/12/10 05:55:42;;;;;;;6.30;5.60;;;;;;;2.79;100.00;99050.02;177679;1254;46108;-86
2023/12/10 05:59:45;;;;;;;7.90;7.10;;;;;;;2.79;100.00;99053.41;178581;1254;44822;-86
2023/12/10 06:03:48;;;;;;;7.40;6.70;;;;;;;2.82;100.00;99061.70;178466;1254;45994;-85
2023/12/10 06:07:52;;;;;;;7.80;6.10;;;;;;;2.84;100.00;99062.48;178704;1253;46019;-87
2023/12/10 06:11:55;;;;;;;9.70;7.00;;;;;;;2.88;100.00;99066.92;178115;1254;58718;-85
2023/12/10 06:15:59;;;;;;;10.80;5.40;;;;;;;2.90;100.00;99075.92;178097;1254;46071;-85
2023/12/10 06:20:05;;;;;;;7.60;5.90;;;;;;;2.90;100.00;99079.40;178570;1254;44700;-85
2023/12/10 06:24:08;;;;;;;5.60;4.20;;;;;;;2.89;100.00;99083.48;178863;1253;46163;-86
2023/12/10 06:28:12;;;;;;;6.50;5.20;;;;;;;2.87;100.00;99091.88;178545;1254;45975;-85
2023/12/10 06:32:15;;;;;;;7.10;5.30;;;;;;;2.88;100.00;99094.79;178768;1253;58234;-84
2023/12/10 06:36:18;;;;;;;7.20;5.70;;;;;;;2.93;100.00;99102.65;178936;1254;44404;-85
2023/12/10 06:40:22;;;;;;;9.40;6.10;;;;;;;2.92;100.00;99108.66;177887;1254;45963;-85
2023/12/10 06:44:25;;;;;;;7.60;5.00;;;;;;;2.88;100.00;99116.85;178527;1254;44063;-84
2023/12/10 06:48:29;;;;;;;10.40;5.60;;;;;;;2.88;100.00;99128.61;178203;1252;46110;-83
2023/12/10 06:52:32;;;;;;;8.60;6.30;;;;;;;2.87;100.00;99134.42;178583;1252;58301;-84
2023/12/10 06:56:39;;;;;;;7.20;6.10;;;;;;;2.88;100.00;99135.39;178286;1254;46096;-83
2023/12/10 07:00:42;;;;;;;9.20;5.30;;;;;;;2.93;100.00;99138.18;178474;1254;46212;-83
2023/12/10 07:04:46;;;;;;;8.00;5.80;;;;;;;2.95;100.00;99147.72;178123;1253;46137;-83
2023/12/10 07:08:49;;;;;;;8.90;5.40;;;;;;;2.93;100.00;99160.59;178647;1254;46043;-83
2023/12/10 07:12:54;;;;;;;5.00;4.60;;;;;;;2.93;100.00;99167.31;178746;1254;60303;-84
2023/12/10 07:16:57;;;;;;;6.20;5.10;;;;;;;2.94;100.00;99170.54;178677;1254;44800;-83
2023/12/10 07:21:01;;;;;;;10.60;7.30;;;;;;;2.90;100.00;99171.86;178777;1253;46092;-84
2023/12/10 07:25:05;;;;;;;13.00;10.00;;;;;;;2.97;100.00;99176.80;178148;1253;46031;-85
2023/12/10 07:29:08;;;;;;;9.10;7.30;;;;;;;3.01;100.00;99184.95;178554;1254;46104;-85
2023/12/10 07:33:11;;;;;;;8.10;7.20;;;;;;;2.95;100.00;99190.08;178245;1254;58230;-85
2023/12/10 07:37:14;;;;;;;13.30;7.70;;;;;;;2.90;100.00;99189.86;179174;1253;45785;-85
2023/12/10 07:41:18;;;;;;;22.20;17.20;;;;;;;2.88;100.00;99191.79;179738;1253;43829;-84
2023/12/10 07:45:21;;;;;;;23.80;18.00;;;;;;;2.94;100.00;99195.77;178894;1254;46103;-86
2023/12/10 07:49:24;;;;;;;51.50;39.60;;;;;;;3.00;100.00;99195.23;178890;1253;45988;-86
2023/12/10 07:53:28;;;;;;;29.30;26.10;;;;;;;3.05;100.00;99205.58;178732;1253;58442;-87
2023/12/10 07:57:31;;;;;;;23.70;16.40;;;;;;;3.06;100.00;99207.42;180194;1253;46052;-84
2023/12/10 08:01:34;;;;;;;35.30;16.40;;;;;;;3.08;100.00;99216.36;181089;1253;43448;-84
2023/12/10 08:05:37;;;;;;;36.30;22.80;;;;;;;3.07;100.00;99218.54;178743;1253;46097;-86
2023/12/10 08:09:42;;;;;;;30.10;21.60;;;;;;;3.11;100.00;99217.40;179246;1252;45888;-84
2023/12/10 08:13:45;;;;;;;27.30;18.20;;;;;;;3.12;100.00;99215.42;179422;1253;58424;-85
2023/12/10 08:17:48;;;;;;;18.60;12.60;;;;;;;3.03;100.00;99218.27;179827;1252;46010;-83
2023/12/10 08:21:52;;;;;;;17.40;14.20;;;;;;;3.00;100.00;99219.34;179083;1254;44402;-84
2023/12/10 08:25:55;;;;;;;25.80;18.60;;;;;;;3.05;100.00;99226.92;179126;1254;45999;-84
2023/12/10 08:29:58;;;;;;;29.20;24.00;;;;;;;3.13;100.00;99233.05;180227;1253;46088;-84
2023/12/10 08:34:02;;;;;;;27.80;22.70;;;;;;;3.19;100.00;99230.35;179688;1254;58410;-88
2023/12/10 08:38:05;;;;;;;26.10;21.80;;;;;;;3.30;100.00;99233.08;179366;1253;46057;-86
2023/12/10 08:42:09;;;;;;;29.80;23.90;;;;;;;3.42;100.00;99237.92;178577;1253;45898;-82
2023/12/10 08:46:12;;;;;;;73.60;43.40;;;;;;;3.55;100.00;99229.84;178851;1254;45991;-83
2023/12/10 08:50:15;;;;;;;55.70;33.00;;;;;;;3.67;100.00;99228.64;179692;1254;45801;-86
2023/12/10 08:54:19;;;;;;;135.50;74.80;;;;;;;3.78;100.00;99225.25;178815;1252;58773;-87
2023/12/10 08:58:27;;;;;;;;;;;;;;;3.92;100.00;99224.98;179091;1253;220005;-84
2023/12/10 09:02:30;;;;;;;77.20;41.20;;;;;;;4.04;100.00;99232.94;179566;1253;45830;-80
2023/12/10 09:06:34;;;;;;;30.70;15.10;;;;;;;4.03;100.00;99238.77;180431;1253;45855;-84
2023/12/10 09:10:37;;;;;;;33.20;17.00;;;;;;;3.97;100.00;99242.48;180188;1252;46160;-83
2023/12/10 09:14:41;;;;;;;26.20;13.00;;;;;;;3.99;100.00;99243.45;179054;1254;58095;-85
2023/12/10 09:18:44;;;;;;;27.00;15.00;;;;;;;4.04;100.00;99244.33;178868;1254;45960;-85
2023/12/10 09:22:48;;;;;;;26.00;17.00;;;;;;;4.16;100.00;99242.94;178867;1255;45767;-85
2023/12/10 09:26:51;;;;;;;34.40;23.00;;;;;;;4.35;100.00;99251.95;179609;1252;46549;-84
2023/12/10 09:30:54;;;;;;;32.90;21.90;;;;;;;4.58;100.00;99249.58;179056;1252;46079;-85
2023/12/10 09:35:00;;;;;;;38.80;26.00;;;;;;;4.83;100.00;99251.98;179709;1252;57320;-86
2023/12/10 09:39:04;;;;;;;96.30;63.00;;;;;;;5.03;100.00;99255.94;179042;1253;45990;-84
2023/12/10 09:43:07;;;;;;;57.10;34.80;;;;;;;5.29;100.00;99256.45;179077;1253;45988;-85
2023/12/10 09:47:10;;;;;;;28.20;16.50;;;;;;;5.51;100.00;99254.78;178812;1254;44386;-85
2023/12/10 09:51:14;;;;;;;20.00;15.50;;;;;;;5.61;100.00;99257.16;178730;1252;46074;-85
2023/12/10 09:55:17;;;;;;;44.50;29.20;;;;;;;5.68;100.00;99257.66;179008;1253;59145;-84
2023/12/10 09:59:20;;;;;;;126.60;74.50;;;;;;;5.65;100.00;99266.55;179006;1252;46040;-85
2023/12/10 10:03:24;;;;;;;105.30;56.30;;;;;;;5.66;100.00;99275.41;179392;1252;46090;-87
2023/12/10 10:07:29;;;;;;;96.10;44.90;;;;;;;5.82;100.00;99275.44;179435;1254;45955;-82
2023/12/10 10:11:33;;;;;;;72.20;40.00;;;;;;;5.98;100.00;99275.77;179054;1254;46124;-84
2023/12/10 10:15:37;;;;;;;60.30;35.70;;;;;;;6.18;100.00;99272.63;179489;1252;57239;-86
2023/12/10 10:19:48;;;;;;;31.00;17.40;;;;;;;6.38;100.00;99270.39;179391;1252;46158;-84
2023/12/10 10:23:51;;;;;;;24.10;13.00;;;;;;;6.50;100.00;99272.40;178375;1257;44818;-85
2023/12/10 10:27:54;;;;;;;17.10;10.70;;;;;;;6.57;100.00;99274.14;180115;1252;44244;-87
2023/12/10 10:32:02;;;;;;;26.50;12.10;;;;;;;6.67;100.00;99269.64;179743;1254;44873;-86
2023/12/10 10:36:06;;;;;;;15.70;7.30;;;;;;;6.83;100.00;99278.37;178995;1253;59159;-87
2023/12/10 10:40:10;;;;;;;13.90;6.00;;;;;;;6.97;100.00;99283.42;178772;1252;46216;-87
2023/12/10 10:44:13;;;;;;;15.50;6.40;;;;;;;7.05;100.00;99293.67;179688;1253;44666;-87
2023/12/10 10:48:21;;;;;;;15.30;7.30;;;;;;;7.09;100.00;99294.96;179423;1253;46120;-89
2023/12/10 10:52:32;;;;;;;13.80;7.60;;;;;;;7.21;100.00;99297.49;179044;1254;46007;-83
2023/12/10 10:56:37;;;;;;;18.10;7.10;;;;;;;7.32;100.00;99296.77;179111;1252;57596;-86
2023/12/10 11:00:41;;;;;;;13.20;5.90;;;;;;;7.31;100.00;99304.58;179534;1255;46039;-86
2023/12/10 11:04:49;;;;;;;12.20;5.00;;;;;;;7.26;100.00;99312.39;179155;1255;46129;-87
2023/12/10 11:08:58;;;;;;;11.90;5.90;;;;;;;7.22;100.00;99321.50;179774;1252;45927;-87
2023/12/10 11:13:05;;;;;;;13.90;4.70;;;;;;;7.21;100.00;99325.50;178616;1255;46216;-88
2023/12/10 11:17:09;;;;;;;21.00;10.40;;;;;;;7.21;100.00;99324.10;179301;1254;59536;-87
2023/12/10 11:21:16;;;;;;;15.20;9.10;;;;;;;7.19;99.93;99322.89;179452;1253;46038;-88
2023/12/10 11:25:21;;;;;;;15.70;8.80;;;;;;;7.13;99.35;99329.70;178752;1253;46004;-87
2023/12/10 11:29:24;;;;;;;11.00;6.80;;;;;;;7.02;96.97;99329.70;179123;1253;45436;-86
2023/12/10 11:33:28;;;;;;;16.40;7.30;;;;;;;6.92;97.03;99324.69;179214;1257;46067;-88
2023/12/10 11:37:35;;;;;;;12.20;8.00;;;;;;;6.83;97.55;99325.77;179548;1253;58192;-87
2023/12/10 11:41:41;;;;;;;15.90;7.00;;;;;;;6.77;98.03;99327.51;181402;1252;43501;-84
2023/12/10 11:46:05;;;;;;;12.30;7.70;;;;;;;6.71;98.03;99327.93;180924;1253;44119;-88
2023/12/10 11:50:10;;;;;;;17.20;7.70;;;;;;;6.65;98.15;99322.98;179610;1253;44833;-88
2023/12/10 11:54:17;;;;;;;15.00;7.60;;;;;;;6.60;98.48;99318.11;179689;1252;44250;-84
2023/12/10 11:58:32;;;;;;;15.80;7.10;;;;;;;6.58;99.20;99319.70;179674;1254;59837;-86
2023/12/10 12:02:46;;;;;;;16.20;6.00;;;;;;;6.58;99.53;99319.85;179201;1252;45898;-87
2023/12/10 12:06:50;;;;;;;10.60;6.50;;;;;;;6.62;99.06;99323.25;180273;1253;44306;-86
2023/12/10 12:10:57;;;;;;;12.30;5.80;;;;;;;6.63;98.71;99324.41;179740;1254;46154;-87
2023/12/10 12:15:02;;;;;;;9.60;6.20;;;;;;;6.61;98.56;99323.88;179079;1253;46093;-85
2023/12/10 12:19:05;;;;;;;8.20;5.60;;;;;;;6.61;99.11;99324.02;179445;1252;60641;-86
2023/12/10 12:23:09;;;;;;;24.00;6.60;;;;;;;6.60;99.78;99324.29;179072;1254;46100;-85
2023/12/10 12:27:13;;;;;;;7.90;6.20;;;;;;;6.63;100.00;99326.17;179204;1253;44391;-86
2023/12/10 12:31:17;;;;;;;14.90;8.90;;;;;;;6.68;100.00;99331.02;178784;1253;45994;-86
2023/12/10 12:35:20;;;;;;;15.80;7.30;;;;;;;6.80;100.00;99346.45;178030;1258;46100;-83
2023/12/10 12:39:24;;;;;;;20.30;10.20;;;;;;;6.88;99.91;99353.04;179069;1252;59814;-87
2023/12/10 12:43:28;;;;;;;17.00;8.10;;;;;;;6.94;99.69;99356.99;179622;1254;46106;-86
2023/12/10 12:47:31;;;;;;;29.60;10.50;;;;;;;7.02;99.90;99359.17;179805;1252;46050;-86
2023/12/10 12:51:36;;;;;;;16.00;10.50;;;;;;;7.13;99.55;99361.39;178589;1252;46022;-84
2023/12/10 12:55:39;;;;;;;21.20;8.10;;;;;;;7.22;98.55;99360.34;179666;1252;46083;-87
2023/12/10 12:59:43;;;;;;;20.90;9.00;;;;;;;7.32;97.79;99362.15;179370;1253;57961;-86
2023/12/10 13:03:47;;;;;;;11.00;7.90;;;;;;;7.43;97.65;99357.89;179463;1252;46135;-85
2023/12/10 13:07:50;;;;;;;13.60;8.60;;;;;;;7.56;97.76;99366.74;178449;1252;46062;-87
2023/12/10 13:11:53;;;;;;;12.00;8.50;;;;;;;7.58;97.09;99374.81;179414;1255;46025;-87
2023/12/10 13:15:57;;;;;;;12.90;4.40;;;;;;;7.51;97.56;99377.67;179055;1252;44549;-86
2023/12/10 13:20:05;;;;;;;7.70;2.80;;;;;;;7.45;99.87;99377.19;179943;1256;58119;-85
2023/12/10 13:24:08;;;;;;;6.70;3.30;;;;;;;7.39;100.00;99371.80;178982;1254;46020;-85
2023/12/10 13:28:12;;;;;;;10.40;3.10;;;;;;;7.36;100.00;99371.17;179682;1253;44440;-85
2023/12/10 13:32:15;;;;;;;10.60;3.80;;;;;;;7.36;100.00;99368.94;179486;1256;45992;-85
2023/12/10 13:36:19;;;;;;;13.60;4.30;;;;;;;7.35;100.00;99368.98;179042;1253;46112;-86
2023/12/10 13:40:22;;;;;;;9.50;4.50;;;;;;;7.35;100.00;99374.87;178839;1252;59539;-87
2023/12/10 13:44:26;;;;;;;8.80;5.00;;;;;;;7.29;99.65;99382.20;179607;1252;46101;-85
2023/12/10 13:48:29;;;;;;;8.70;5.50;;;;;;;7.21;99.54;99383.67;178973;1255;45994;-86
2023/12/10 13:52:33;;;;;;;6.90;4.70;;;;;;;7.12;99.84;99386.52;179764;1252;45537;-85
2023/12/10 13:56:37;;;;;;;12.00;3.30;;;;;;;7.07;100.00;99385.02;180837;1252;46095;-85
2023/12/10 14:00:40;;;;;;;11.40;4.70;;;;;;;7.06;100.00;99386.90;179396;1256;58375;-87
2023/12/10 14:04:45;;;;;;;7.90;3.40;;;;;;;6.97;100.00;99388.15;179236;1252;44248;-86
2023/12/10 14:08:49;;;;;;;5.60;3.30;;;;;;;6.91;100.00;99385.80;179478;1253;45114;-84
2023/12/10 14:12:55;;;;;;;8.40;3.20;;;;;;;6.87;100.00;99391.59;179118;1253;46137;-86
2023/12/10 14:16:58;;;;;;;7.70;5.20;;;;;;;6.82;100.00;99397.73;179612;1252;45940;-88
2023/12/10 14:21:02;;;;;;;18.90;11.90;;;;;;;6.80;100.00;99399.33;179218;1255;58162;-87
2023/12/10 14:25:05;;;;;;;31.20;15.80;;;;;;;6.75;100.00;99393.20;178896;1253;46000;-87
2023/12/10 14:29:09;;;;;;;28.70;13.40;;;;;;;6.71;100.00;99403.22;178902;1252;44743;-83
2023/12/10 14:33:12;;;;;;;35.10;18.10;;;;;;;6.63;100.00;99404.02;178796;1252;44851;-85
2023/12/10 14:37:16;;;;;;;34.90;21.20;;;;;;;6.53;100.00;99400.77;179361;1252;46100;-87
2023/12/10 14:41:19;;;;;;;37.80;21.90;;;;;;;6.46;100.00;99401.47;178519;1253;59515;-87
2023/12/10 14:45:22;;;;;;;35.20;20.30;;;;;;;6.39;100.00;99405.35;179145;1252;45969;-88
2023/12/10 14:49:27;;;;;;;30.30;17.40;;;;;;;6.34;100.00;99411.94;179495;1252;46049;-88
2023/12/10 14:53:31;;;;;;;45.70;20.20;;;;;;;6.30;100.00;99418.26;179604;1252;46023;-88
2023/12/10 14:57:34;;;;;;;37.80;22.10;;;;;;;6.23;100.00;99420.14;178923;1253;45998;-86
2023/12/10 15:01:37;;;;;;;34.70;19.40;;;;;;;6.22;100.00;99419.04;180030;1252;59223;-86
2023/12/10 15:05:44;;;;;;;25.80;15.40;;;;;;;6.19;100.00;99422.27;178322;1253;46098;-86
2023/12/10 15:09:48;;;;;;;;;;;;;;;6.18;100.00;99421.48;179058;1253;46294;-84
2023/12/10 15:13:52;;;;;;;15.30;7.70;;;;;;;6.18;100.00;99424.82;178840;1252;45787;-85
2023/12/10 15:17:58;;;;;;;10.10;6.50;;;;;;;6.14;100.00;99421.18;179390;1255;46066;-84
2023/12/10 15:22:01;;;;;;;8.50;7.40;;;;;;;6.12;100.00;99421.34;178543;1253;58222;-84
2023/12/10 15:26:04;;;;;;;10.90;7.00;;;;;;;6.11;100.00;99427.03;180343;1252;46028;-83
2023/12/10 15:30:08;;;;;;;10.60;6.70;;;;;;;6.09;100.00;99426.17;180926;1253;45965;-83
2023/12/10 15:34:11;;;;;;;9.20;7.20;;;;;;;6.06;100.00;99433.77;180055;1253;46019;-85
2023/12/10 15:38:15;;;;;;;9.40;5.50;;;;;;;6.04;100.00;99439.41;178851;1252;46003;-82
2023/12/10 15:42:18;;;;;;;9.70;5.40;;;;;;;6.01;100.00;99441.35;179991;1252;59555;-84
2023/12/10 15:46:21;;;;;;;5.60;4.70;;;;;;;6.01;100.00;99437.70;179569;1252;46024;-84
2023/12/10 15:50:24;;;;;;;8.40;5.00;;;;;;;5.98;100.00;99436.29;179521;1254;45962;-85
2023/12/10 15:54:31;;;;;;;7.20;5.70;;;;;;;5.97;100.00;99434.23;179968;1252;45667;-84
2023/12/10 15:58:35;;;;;;;10.50;6.50;;;;;;;5.97;100.00;99432.15;179128;1254;44120;-86
2023/12/10 16:02:39;;;;;;;8.70;6.10;;;;;;;5.96;100.00;99426.61;179939;1252;59248;-83
2023/12/10 16:06:42;;;;;;;9.00;7.10;;;;;;;5.98;100.00;99434.16;179040;1257;45986;-85
2023/12/10 16:10:46;;;;;;;17.00;7.40;;;;;;;5.96;100.00;99429.20;178574;1252;46120;-83
2023/12/10 16:14:51;;;;;;;6.90;4.80;;;;;;;5.98;100.00;99429.42;178611;1258;46103;-84
2023/12/10 16:18:54;;;;;;;9.90;4.10;;;;;;;5.97;100.00;99431.41;179237;1253;46020;-87
2023/12/10 16:22:58;;;;;;;9.30;4.70;;;;;;;5.96;100.00;99436.80;179156;1253;58215;-85
2023/12/10 16:27:01;;;;;;;7.30;4.50;;;;;;;5.91;100.00;99440.73;179476;1253;46183;-83
2023/12/10 16:31:04;;;;;;;7.10;4.10;;;;;;;5.84;100.00;99446.97;179828;1252;44901;-85
2023/12/10 16:35:08;;;;;;;6.50;3.90;;;;;;;5.81;100.00;99435.27;179497;1256;46655;-84
2023/12/10 16:39:11;;;;;;;3.50;2.80;;;;;;;5.75;100.00;99429.42;179520;1256;46083;-85
2023/12/10 16:43:15;;;;;;;6.30;3.30;;;;;;;5.71;100.00;99424.42;178924;1252;57405;-85
2023/12/10 16:47:18;;;;;;;6.80;4.20;;;;;;;5.71;100.00;99429.13;178184;1253;45966;-83
2023/12/10 16:51:21;;;;;;;10.80;9.10;;;;;;;5.69;100.00;99427.88;178550;1253;46010;-85
2023/12/10 16:55:25;;;;;;;10.40;8.90;;;;;;;5.60;100.00;99432.08;178609;1253;46430;-85
2023/12/10 16:59:28;;;;;;;9.50;6.70;;;;;;;5.55;100.00;99429.27;178848;1252;45902;-84
2023/12/10 17:03:31;;;;;;;17.60;8.10;;;;;;;5.56;100.00;99427.98;178569;1253;59270;-83
2023/12/10 17:07:35;;;;;;;13.80;8.90;;;;;;;5.56;100.00;99427.08;178463;1253;46081;-85
2023/12/10 17:11:39;;;;;;;11.40;8.10;;;;;;;5.52;100.00;99430.36;178269;1252;44537;-85
2023/12/10 17:15:43;;;;;;;11.80;7.40;;;;;;;5.57;100.00;99432.31;178353;1253;46391;-84
2023/12/10 17:19:46;;;;;;;10.40;6.40;;;;;;;5.56;100.00;99430.96;178683;1253;46109;-85
2023/12/10 17:23:50;;;;;;;8.10;5.40;;;;;;;5.55;100.00;99432.60;179325;1257;59513;-83
2023/12/10 17:27:53;;;;;;;15.10;5.50;;;;;;;5.56;100.00;99434.84;178899;1257;45991;-84
2023/12/10 17:31:56;;;;;;;8.50;3.80;;;;;;;5.56;100.00;99432.86;178553;1256;45947;-84
2023/12/10 17:35:59;;;;;;;5.20;4.20;;;;;;;5.56;100.00;99433.25;179201;1254;46760;-85
2023/12/10 17:40:03;;;;;;;9.80;6.70;;;;;;;5.55;100.00;99425.61;179533;1253;46098;-85
2023/12/10 17:44:07;;;;;;;15.00;9.60;;;;;;;5.61;100.00;99429.42;178950;1256;59495;-86
2023/12/10 17:48:10;;;;;;;22.30;13.50;;;;;;;5.69;100.00;99431.27;178565;1256;44834;-85
2023/12/10 17:52:13;;;;;;;32.10;9.30;;;;;;;5.77;100.00;99433.79;178911;1253;46323;-85
2023/12/10 17:56:17;;;;;;;11.70;6.10;;;;;;;5.82;100.00;99429.86;179384;1252;45933;-86
2023/12/10 18:00:20;;;;;;;7.20;4.40;;;;;;;5.87;100.00;99426.06;179524;1253;46013;-85
2023/12/10 18:04:24;;;;;;;7.00;4.80;;;;;;;5.90;100.00;99414.58;180132;1252;58216;-86
2023/12/10 18:08:27;;;;;;;7.40;4.10;;;;;;;5.91;100.00;99415.41;179347;1252;44311;-86
2023/12/10 18:12:30;;;;;;;13.40;3.20;;;;;;;5.96;100.00;99407.79;178768;1252;46055;-86
2023/12/10 18:16:33;;;;;;;7.70;2.90;;;;;;;6.02;100.00;99403.30;179218;1252;46103;-83
2023/12/10 18:20:37;;;;;;;5.20;3.50;;;;;;;6.06;100.00;99397.84;180323;1252;45991;-82
2023/12/10 18:24:40;;;;;;;6.60;3.60;;;;;;;6.09;100.00;99391.15;178659;1252;58184;-85
2023/12/10 18:28:44;;;;;;;4.60;2.60;;;;;;;6.14;100.00;99385.61;179366;1253;45952;-84
2023/12/10 18:32:48;;;;;;;6.00;4.30;;;;;;;6.19;100.00;99373.81;179720;1257;46062;-85
2023/12/10 18:36:52;;;;;;;7.50;4.10;;;;;;;6.20;100.00;99368.15;179162;1254;45994;-84
2023/12/10 18:40:55;;;;;;;9.70;3.90;;;;;;;6.21;100.00;99365.79;179239;1253;46023;-85
2023/12/10 18:44:58;;;;;;;13.20;4.20;;;;;;;6.22;100.00;99368.17;179122;1253;58657;-85